Time;durP1;ratioP1;P1;durP2;ratioP2;P2;SDS_P1;SDS_P2;PMS_P1;PMS_P2;Temp;Humidity;BMP_temperature;BMP_pressure;BME280_temperature;BME280_humidity;BME280_pressure;Samples;Min_cycle;Max_cycle;Signal;HPM_P1;HPM_P2
2023/10/01 00:01:27;;;;;;;13.43;3.42;;;;;;;18.28;91.37;101740.50;7362799;19;20050;-65
2023/10/01 00:03:55;;;;;;;10.57;2.22;;;;;;;18.31;92.02;101739.31;7359713;19;20138;-63
2023/10/01 00:06:24;;;;;;;12.07;2.30;;;;;;;18.27;91.15;101738.84;7361584;19;20010;-64
2023/10/01 00:08:53;;;;;;;13.40;3.00;;;;;;;18.27;91.16;101732.69;7358012;19;20034;-64
2023/10/01 00:11:21;;;;;;;10.80;2.42;;;;;;;18.27;90.96;101741.53;7357471;19;20094;-64
2023/10/01 00:13:48;;;;;;;10.75;2.45;;;;;;;18.27;91.05;101738.84;7357796;19;20018;-65
2023/10/01 00:16:15;;;;;;;11.38;2.53;;;;;;;18.25;90.69;101734.69;7361111;19;20006;-63
2023/10/01 00:18:42;;;;;;;13.88;3.08;;;;;;;18.23;91.50;101740.22;7358308;19;20352;-64
2023/10/01 00:21:10;;;;;;;12.70;2.15;;;;;;;18.21;91.70;101722.75;7360067;19;20007;-63
2023/10/01 00:23:37;;;;;;;11.70;2.40;;;;;;;18.22;91.78;101732.41;7360006;19;20018;-65
2023/10/01 00:26:07;;;;;;;10.45;2.20;;;;;;;18.21;91.49;101731.56;7358411;19;20007;-65
2023/10/01 00:28:37;;;;;;;12.63;2.88;;;;;;;18.18;91.71;101729.28;7356174;19;20045;-64
2023/10/01 00:31:05;;;;;;;10.00;2.83;;;;;;;18.15;91.67;101742.13;7360812;19;20014;-65
2023/10/01 00:33:32;;;;;;;13.90;2.63;;;;;;;18.15;92.10;101726.13;7358808;19;20050;-65
2023/10/01 00:35:59;;;;;;;14.23;2.75;;;;;;;18.13;92.18;101726.34;7360944;19;20010;-63
2023/10/01 00:38:27;;;;;;;13.35;2.80;;;;;;;18.15;92.52;101736.78;7358454;19;20011;-65
2023/10/01 00:40:55;;;;;;;16.13;2.88;;;;;;;18.15;92.53;101728.78;7360254;19;20612;-64
2023/10/01 00:43:25;;;;;;;14.75;3.30;;;;;;;18.13;92.20;101736.16;7356034;19;20057;-65
2023/10/01 00:45:53;;;;;;;14.48;2.88;;;;;;;18.12;92.06;101719.34;7360830;19;20459;-64
2023/10/01 00:48:22;;;;;;;13.85;3.25;;;;;;;18.14;92.26;101719.13;7358643;19;20014;-63
2023/10/01 00:50:52;;;;;;;11.05;2.50;;;;;;;18.15;92.53;101720.81;7359531;19;20091;-65
2023/10/01 00:53:19;;;;;;;16.23;2.97;;;;;;;18.17;92.50;101718.78;7358377;19;20400;-64
2023/10/01 00:55:48;;;;;;;11.90;3.05;;;;;;;18.18;92.14;101712.47;7358595;19;20011;-64
2023/10/01 00:58:15;;;;;;;10.73;2.55;;;;;;;18.17;92.32;101705.47;7357412;19;20033;-64
2023/10/01 01:00:43;;;;;;;10.07;2.28;;;;;;;18.15;92.04;101712.81;7359436;19;20011;-64
2023/10/01 01:03:19;;;;;;;13.63;2.90;;;;;;;18.16;92.33;101709.16;7359850;19;20369;-65
2023/10/01 01:08:33;;;;;;;10.57;2.30;;;;;;;18.17;93.78;101698.31;7357961;19;20896;-64
2023/10/01 01:11:01;;;;;;;12.60;2.58;;;;;;;18.20;93.46;101702.44;7355757;19;20487;-64
2023/10/01 01:13:29;;;;;;;12.25;2.83;;;;;;;18.21;93.07;101707.59;7350755;19;20258;-63
2023/10/01 01:16:00;;;;;;;12.05;2.38;;;;;;;18.20;93.28;101713.94;7359609;19;20602;-65
2023/10/01 01:18:28;;;;;;;13.55;2.80;;;;;;;18.21;93.37;101709.44;7358712;19;20021;-66
2023/10/01 01:20:58;;;;;;;10.07;2.65;;;;;;;18.21;93.51;101709.44;7359480;19;20809;-64
2023/10/01 01:23:30;;;;;;;15.73;2.85;;;;;;;18.18;93.60;101715.97;7356115;19;20702;-63
2023/10/01 01:25:59;;;;;;;13.27;3.35;;;;;;;18.19;93.58;101709.59;7360059;19;20094;-64
2023/10/01 01:28:30;;;;;;;13.10;2.47;;;;;;;18.19;93.92;101700.78;7354012;19;20591;-63
2023/10/01 01:31:00;;;;;;;14.77;3.03;;;;;;;18.20;93.81;101705.09;7358408;19;20113;-63
2023/10/01 01:36:10;;;;;;;14.27;3.38;;;;;;;18.20;93.55;101683.78;7359079;19;20230;-64
2023/10/01 01:38:53;;;;;;;13.35;2.85;;;;;;;18.18;93.82;101686.66;7357224;19;20017;-65
2023/10/01 01:41:28;;;;;;;13.15;3.03;;;;;;;18.19;94.17;101688.28;7357538;19;20027;-64
2023/10/01 01:43:57;;;;;;;10.05;3.10;;;;;;;18.20;94.47;101684.63;7352918;19;20574;-64
2023/10/01 01:46:25;;;;;;;12.18;3.17;;;;;;;18.20;94.35;101694.44;7358533;19;20011;-64
2023/10/01 01:48:53;;;;;;;13.27;3.05;;;;;;;18.21;94.48;101696.09;7354355;19;20019;-64
2023/10/01 01:51:20;;;;;;;16.08;3.75;;;;;;;18.22;94.21;101697.78;7353098;19;20018;-63
2023/10/01 01:53:50;;;;;;;15.60;3.53;;;;;;;18.24;94.52;101685.91;7356005;19;20046;-63
2023/10/01 01:56:19;;;;;;;14.65;4.15;;;;;;;18.28;94.28;101686.38;7357578;19;21014;-63
2023/10/01 01:58:47;;;;;;;13.00;3.88;;;;;;;18.31;94.32;101676.19;7353512;19;20010;-63
2023/10/01 02:03:46;;;;;;;13.48;3.17;;;;;;;18.31;93.85;101673.53;7356927;19;20807;-63
2023/10/01 02:06:26;;;;;;;18.20;3.47;;;;;;;18.33;94.12;101676.84;7357269;19;20849;-64
2023/10/01 02:08:57;;;;;;;16.80;4.20;;;;;;;18.34;94.25;101673.16;7355144;19;20043;-64
2023/10/01 02:11:26;;;;;;;14.27;3.03;;;;;;;18.36;94.84;101667.63;7355654;19;20014;-64
2023/10/01 02:13:58;;;;;;;12.43;3.38;;;;;;;18.36;94.42;101662.31;7349179;19;20021;-64
2023/10/01 02:24:14;;;;;;;13.50;3.50;;;;;;;18.36;94.08;101644.47;7355613;19;20022;-65
2023/10/01 02:26:42;;;;;;;11.60;3.40;;;;;;;18.37;94.64;101640.81;7354735;19;20048;-64
2023/10/01 02:29:12;;;;;;;16.98;3.38;;;;;;;18.39;94.21;101641.44;7352358;19;20019;-64
2023/10/01 02:31:47;;;;;;;12.02;2.92;;;;;;;18.41;94.06;101629.78;7352554;19;20055;-64
2023/10/01 02:34:18;;;;;;;14.65;3.08;;;;;;;18.40;93.94;101636.94;7356102;19;20014;-65
2023/10/01 02:36:45;;;;;;;17.45;3.67;;;;;;;18.43;93.89;101636.59;7355036;19;20150;-64
2023/10/01 02:44:31;;;;;;;14.65;3.30;;;;;;;18.44;94.42;101632.88;7355811;19;20022;-65
2023/10/01 02:47:03;;;;;;;14.27;3.35;;;;;;;18.44;94.25;101630.22;7357080;19;20018;-66
2023/10/01 02:49:32;;;;;;;12.00;2.90;;;;;;;18.39;94.05;101625.44;7352108;19;20600;-65
2023/10/01 02:52:03;;;;;;;13.25;3.50;;;;;;;18.41;94.39;101627.09;7357501;19;20022;-65
2023/10/01 02:54:31;;;;;;;14.68;3.17;;;;;;;18.38;94.55;101623.81;7356395;19;20227;-65
2023/10/01 02:59:36;;;;;;;10.98;3.45;;;;;;;18.39;94.80;101625.44;7353704;19;20032;-65
2023/10/01 03:02:08;;;;;;;18.48;3.92;;;;;;;18.37;94.61;101622.16;7352580;19;20035;-65
2023/10/01 03:04:35;;;;;;;17.75;3.97;;;;;;;18.38;94.79;101623.81;7356531;19;20113;-65
2023/10/01 03:07:04;;;;;;;17.15;3.50;;;;;;;18.38;94.69;101621.16;7354409;19;20015;-66
2023/10/01 03:09:33;;;;;;;13.90;3.33;;;;;;;18.37;94.62;101618.66;7355619;19;20498;-65
2023/10/01 03:14:44;;;;;;;16.27;4.00;;;;;;;18.37;95.32;101608.00;7345944;19;20018;-65
2023/10/01 03:17:18;;;;;;;16.33;3.88;;;;;;;18.34;95.31;101611.84;7353853;19;20040;-64
2023/10/01 03:19:50;;;;;;;15.57;3.53;;;;;;;18.32;95.17;101611.22;7356375;19;20022;-65
2023/10/01 03:22:23;;;;;;;16.00;3.50;;;;;;;18.30;95.25;101604.41;7354948;19;20342;-66
2023/10/01 03:24:51;;;;;;;14.38;3.38;;;;;;;18.28;95.77;101609.94;7355371;19;20274;-66
2023/10/01 03:27:20;;;;;;;19.80;4.10;;;;;;;18.27;96.17;101610.13;7353283;19;20110;-65
2023/10/01 03:29:53;;;;;;;10.75;2.70;;;;;;;18.25;96.25;101612.13;7351741;19;20044;-63
2023/10/01 03:35:08;;;;;;;12.43;3.03;;;;;;;18.23;96.89;101615.00;7354794;19;20029;-65
2023/10/01 03:37:38;;;;;;;18.02;3.70;;;;;;;18.21;96.92;101611.69;7359829;19;20056;-64
2023/10/01 03:40:18;;;;;;;13.93;3.40;;;;;;;18.19;97.19;101612.84;7363243;19;20035;-64
2023/10/01 03:47:57;;;;;;;17.30;4.25;;;;;;;18.16;97.67;101606.06;7361584;19;20668;-67
2023/10/01 03:50:26;;;;;;;15.50;3.60;;;;;;;18.17;98.34;101613.06;7361006;19;20089;-65
2023/10/01 03:52:54;;;;;;;15.07;3.67;;;;;;;18.19;98.62;101611.03;7362166;19;20015;-64
2023/10/01 04:03:14;;;;;;;14.30;3.85;;;;;;;18.13;99.13;101602.94;7362198;19;20026;-66
2023/10/01 04:05:46;;;;;;;15.50;3.50;;;;;;;18.12;99.13;101612.78;7360733;19;20010;-65
2023/10/01 04:08:14;;;;;;;13.43;3.85;;;;;;;18.12;99.50;101615.44;7360688;19;20017;-64
2023/10/01 04:10:43;;;;;;;14.63;3.55;;;;;;;18.15;99.78;101608.91;7358766;19;20552;-66
2023/10/01 04:13:13;;;;;;;14.98;3.50;;;;;;;18.14;99.66;101612.56;7357548;19;20706;-65
2023/10/01 04:15:46;;;;;;;15.20;3.75;;;;;;;18.12;99.76;101607.44;7355711;19;20036;-65
2023/10/01 04:26:06;;;;;;;12.57;3.20;;;;;;;18.14;100.00;101604.59;7357480;19;20617;-65
2023/10/01 04:28:36;;;;;;;13.52;3.75;;;;;;;18.16;100.00;101603.41;7358145;19;20458;-65
2023/10/01 04:31:09;;;;;;;10.95;3.70;;;;;;;18.20;100.00;101606.53;7358263;19;20557;-65
2023/10/01 04:33:42;;;;;;;18.10;5.22;;;;;;;18.19;100.00;101603.03;7359027;19;20041;-65
2023/10/01 04:36:11;;;;;;;;;;;;;;;18.22;100.00;101601.84;7362305;19;20018;-64
2023/10/01 04:38:41;;;;;;;13.80;3.50;;;;;;;18.21;100.00;101597.53;7361425;19;19918;-64
2023/10/01 04:41:21;;;;;;;13.10;3.63;;;;;;;18.20;100.00;101598.53;7357450;19;20506;-65
2023/10/01 04:43:55;;;;;;;14.27;3.58;;;;;;;18.24;100.00;101594.47;7354347;19;20014;-65
2023/10/01 04:46:25;;;;;;;17.20;4.72;;;;;;;18.26;100.00;101600.47;7362024;19;20049;-66
2023/10/01 04:48:52;;;;;;;16.80;3.85;;;;;;;18.23;100.00;101604.34;7357293;19;20022;-65
2023/10/01 04:51:22;;;;;;;14.10;3.22;;;;;;;18.25;100.00;101609.47;7359044;19;20942;-65
2023/10/01 04:53:49;;;;;;;19.85;3.90;;;;;;;18.25;100.00;101610.28;7358413;19;20050;-65
2023/10/01 04:56:25;;;;;;;11.23;3.45;;;;;;;18.27;100.00;101618.13;7360274;19;20025;-67
2023/10/01 04:58:54;;;;;;;15.77;3.92;;;;;;;18.29;100.00;101618.75;7354315;19;20017;-65
2023/10/01 05:01:26;;;;;;;12.65;3.50;;;;;;;18.31;100.00;101619.41;7361098;19;20446;-65
2023/10/01 05:03:56;;;;;;;14.00;3.88;;;;;;;18.31;100.00;101619.41;7358220;19;20015;-66
2023/10/01 05:06:27;;;;;;;15.48;4.07;;;;;;;18.32;100.00;101613.88;7360174;19;20026;-65
2023/10/01 05:08:56;;;;;;;12.13;3.50;;;;;;;18.35;100.00;101612.69;7357302;19;20454;-65
2023/10/01 05:11:31;;;;;;;14.55;3.40;;;;;;;18.35;100.00;101610.00;7358686;19;20021;-65
2023/10/01 05:13:59;;;;;;;15.70;4.45;;;;;;;18.35;100.00;101608.19;7355683;19;20042;-65
2023/10/01 05:16:31;;;;;;;12.90;3.95;;;;;;;18.39;100.00;101611.28;7356338;19;20414;-65
2023/10/01 05:21:46;;;;;;;14.05;3.30;;;;;;;18.39;100.00;101621.94;7358156;19;20250;-65
2023/10/01 05:24:31;;;;;;;13.45;3.40;;;;;;;18.40;100.00;101620.94;7359304;19;20060;-65
2023/10/01 05:27:00;;;;;;;18.20;3.90;;;;;;;18.39;100.00;101612.13;7357600;19;20018;-65
2023/10/01 05:29:28;;;;;;;14.20;3.80;;;;;;;18.41;100.00;101611.13;7355524;19;20339;-65
2023/10/01 05:31:56;;;;;;;17.63;4.15;;;;;;;18.42;100.00;101616.28;7358601;19;20121;-65
2023/10/01 05:34:25;;;;;;;15.27;3.63;;;;;;;18.43;100.00;101619.78;7357424;19;20014;-65
2023/10/01 05:36:52;;;;;;;15.00;3.72;;;;;;;18.45;100.00;101629.22;7359027;19;20050;-65
2023/10/01 05:39:23;;;;;;;14.75;4.07;;;;;;;18.45;100.00;101629.22;7354244;19;20014;-66
2023/10/01 05:41:52;;;;;;;13.20;4.00;;;;;;;18.45;100.00;101633.72;7358188;19;20021;-65
2023/10/01 05:44:19;;;;;;;18.52;4.10;;;;;;;18.46;100.00;101641.53;7354341;19;20010;-65
2023/10/01 05:46:46;;;;;;;16.00;4.45;;;;;;;18.46;100.00;101635.38;7361548;19;20094;-65
2023/10/01 05:49:13;;;;;;;15.13;4.57;;;;;;;18.49;100.00;101632.38;7354681;19;20023;-65
2023/10/01 05:51:44;;;;;;;15.57;4.22;;;;;;;18.50;100.00;101623.34;7356744;19;20015;-65
2023/10/01 05:54:18;;;;;;;19.40;3.78;;;;;;;18.51;100.00;101619.66;7357266;19;20018;-64
2023/10/01 05:56:48;;;;;;;12.63;3.50;;;;;;;18.50;100.00;101626.81;7358443;19;20374;-66
2023/10/01 05:59:20;;;;;;;15.02;4.63;;;;;;;18.52;100.00;101621.31;7354882;19;20014;-65
2023/10/01 06:01:48;;;;;;;17.23;4.03;;;;;;;18.52;100.00;101629.31;7358917;19;20522;-65
2023/10/01 06:04:18;;;;;;;13.50;3.97;;;;;;;18.52;100.00;101627.47;7357483;19;20018;-65
2023/10/01 06:06:46;;;;;;;14.32;3.53;;;;;;;18.55;100.00;101629.78;7355295;19;20018;-65
2023/10/01 06:09:14;;;;;;;15.43;4.45;;;;;;;18.56;100.00;101625.28;7353795;19;20089;-65
2023/10/01 06:11:48;;;;;;;15.65;4.15;;;;;;;18.57;100.00;101632.28;7356364;19;20094;-65
2023/10/01 06:16:53;;;;;;;14.60;4.03;;;;;;;18.60;100.00;101643.41;7349670;19;20014;-65
2023/10/01 06:19:22;;;;;;;14.60;3.47;;;;;;;18.62;100.00;101635.22;7354314;19;20054;-65
2023/10/01 06:21:50;;;;;;;16.70;4.38;;;;;;;18.62;100.00;101636.06;7356046;19;20118;-65
2023/10/01 06:24:21;;;;;;;15.70;3.97;;;;;;;18.64;100.00;101635.88;7357504;19;20055;-65
2023/10/01 06:26:50;;;;;;;16.73;3.63;;;;;;;18.67;100.00;101631.00;7356316;19;20097;-66
2023/10/01 06:29:17;;;;;;;14.15;4.60;;;;;;;18.69;100.00;101628.94;7354579;19;20121;-66
2023/10/01 06:34:24;;;;;;;14.45;4.28;;;;;;;18.68;100.00;101626.50;7355922;19;20384;-66
2023/10/01 06:36:58;;;;;;;13.35;3.60;;;;;;;18.70;100.00;101627.94;7356535;19;20381;-65
2023/10/01 06:39:30;;;;;;;14.82;4.03;;;;;;;18.73;100.00;101627.59;7353557;19;20025;-64
2023/10/01 06:44:38;;;;;;;14.52;3.80;;;;;;;18.78;100.00;101637.69;7353504;19;20015;-65
2023/10/01 06:47:14;;;;;;;15.43;3.55;;;;;;;18.80;100.00;101628.47;7353926;19;20647;-65
2023/10/01 06:49:56;;;;;;;14.50;3.40;;;;;;;18.80;100.00;101628.47;7353010;19;20042;-65
2023/10/01 06:52:28;;;;;;;;;;;;;;;18.81;100.00;101618.63;7353127;19;20018;-64
2023/10/01 06:54:57;;;;;;;17.73;4.40;;;;;;;18.79;100.00;101612.69;7357734;19;20374;-65
2023/10/01 06:57:28;;;;;;;15.25;3.72;;;;;;;18.82;100.00;101611.47;7350213;19;20026;-65
2023/10/01 06:59:56;;;;;;;14.07;4.07;;;;;;;18.84;100.00;101607.63;7351558;19;20028;-65
2023/10/01 07:02:25;;;;;;;12.80;4.07;;;;;;;18.89;100.00;101605.22;7350873;19;20018;-64
2023/10/01 07:04:58;;;;;;;12.82;4.00;;;;;;;18.94;100.00;101617.97;7355849;19;20474;-65
2023/10/01 07:07:28;;;;;;;15.00;3.50;;;;;;;18.95;100.00;101611.59;7351211;19;20014;-65
2023/10/01 07:09:56;;;;;;;11.98;3.33;;;;;;;18.96;100.00;101608.75;7355658;19;20010;-64
2023/10/01 07:12:24;;;;;;;10.65;3.47;;;;;;;18.98;100.00;101606.75;7355699;19;20018;-65
2023/10/01 07:14:52;;;;;;;11.90;2.97;;;;;;;18.99;100.00;101605.72;7358682;19;20023;-65
2023/10/01 07:17:24;;;;;;;12.52;3.50;;;;;;;19.03;100.00;101616.84;7356384;19;20026;-65
2023/10/01 07:20:00;;;;;;;13.80;4.20;;;;;;;19.04;100.00;101614.00;7356700;19;20021;-65
2023/10/01 07:22:32;;;;;;;12.13;3.08;;;;;;;19.09;100.00;101619.59;7360587;19;20015;-66
2023/10/01 07:25:00;;;;;;;11.43;3.33;;;;;;;19.10;100.00;101613.22;7358933;19;20497;-65
2023/10/01 07:27:28;;;;;;;10.77;3.20;;;;;;;19.12;100.00;101619.19;7358384;19;20006;-65
2023/10/01 07:29:56;;;;;;;8.70;2.80;;;;;;;19.16;100.00;101620.47;7357745;19;20014;-65
2023/10/01 07:32:25;;;;;;;10.88;2.80;;;;;;;19.16;100.00;101635.66;7358253;19;20021;-65
2023/10/01 07:35:06;;;;;;;10.75;3.17;;;;;;;19.16;100.00;101631.16;7358532;19;20532;-65
2023/10/01 07:37:37;;;;;;;11.60;3.22;;;;;;;19.19;100.00;101624.63;7361841;19;20015;-66
2023/10/01 07:40:09;;;;;;;14.00;4.85;;;;;;;19.20;100.00;101626.25;7361480;19;20023;-65
2023/10/01 07:42:46;;;;;;;11.05;4.05;;;;;;;19.22;100.00;101621.56;7355465;19;20545;-65
2023/10/01 07:45:16;;;;;;;12.45;4.13;;;;;;;19.23;100.00;101612.53;7359529;19;20018;-65
2023/10/01 07:47:44;;;;;;;12.18;4.00;;;;;;;19.23;100.00;101615.22;7358490;19;20049;-65
2023/10/01 07:50:13;;;;;;;12.18;3.80;;;;;;;19.25;100.00;101618.50;7361382;19;21085;-65
2023/10/01 07:52:41;;;;;;;12.38;3.28;;;;;;;19.28;100.00;101619.97;7359255;19;20015;-65
2023/10/01 07:55:41;;;;;;;11.48;3.92;;;;;;;19.30;100.00;101620.63;7360007;19;20021;-65
2023/10/01 07:58:16;;;;;;;15.10;3.85;;;;;;;19.33;100.00;101621.06;7357938;19;20437;-66
2023/10/01 08:00:44;;;;;;;8.38;2.72;;;;;;;19.35;100.00;101621.69;7359570;19;20018;-66
2023/10/01 08:05:48;;;;;;;7.78;2.65;;;;;;;19.37;100.00;101621.50;7357798;19;20056;-64
2023/10/01 08:08:35;;;;;;;10.23;3.08;;;;;;;19.37;100.00;101621.50;7358391;19;20115;-65
2023/10/01 08:11:03;;;;;;;9.60;3.10;;;;;;;19.41;100.00;101626.25;7358033;19;20010;-65
2023/10/01 08:13:31;;;;;;;12.15;3.75;;;;;;;19.45;100.00;101622.25;7354640;19;20320;-66
2023/10/01 08:15:58;;;;;;;11.15;3.17;;;;;;;19.47;100.00;101622.03;7361393;19;20019;-64
2023/10/01 08:18:34;;;;;;;10.52;3.28;;;;;;;19.50;100.00;101617.16;7352390;19;20034;-64
2023/10/01 08:21:15;;;;;;;9.27;3.30;;;;;;;19.54;100.00;101625.59;7355134;19;20684;-65
2023/10/01 08:23:54;;;;;;;11.10;2.92;;;;;;;19.55;100.00;101625.41;7360137;19;20045;-65
2023/10/01 08:28:58;;;;;;;9.38;2.53;;;;;;;19.60;100.00;101619.50;7355560;19;20006;-65
2023/10/01 08:34:22;;;;;;;11.95;3.08;;;;;;;19.68;100.00;101622.03;7358132;19;20487;-65
2023/10/01 08:36:58;;;;;;;9.13;2.67;;;;;;;19.73;100.00;101624.13;7359822;19;20394;-65
2023/10/01 08:42:09;;;;;;;8.18;2.95;;;;;;;19.79;100.00;101623.34;7354240;19;20605;-64
2023/10/01 08:44:47;;;;;;;9.45;3.53;;;;;;;19.82;100.00;101629.13;7355114;19;20724;-66
2023/10/01 08:52:52;;;;;;;7.93;2.42;;;;;;;19.90;100.00;101623.66;7354710;19;20044;-65
2023/10/01 08:55:23;;;;;;;7.47;2.10;;;;;;;19.96;100.00;101630.06;7358417;19;20006;-64
2023/10/01 08:57:55;;;;;;;8.48;2.30;;;;;;;19.99;100.00;101627.00;7357268;19;20014;-66
2023/10/01 09:00:24;;;;;;;5.73;1.80;;;;;;;20.01;100.00;101639.13;7354901;19;20470;-65
2023/10/01 09:02:55;;;;;;;11.40;2.20;;;;;;;20.01;100.00;101633.78;7357533;19;20009;-66
2023/10/01 09:05:23;;;;;;;8.07;2.40;;;;;;;20.05;100.00;101626.22;7358493;19;20360;-66
2023/10/01 09:10:38;;;;;;;7.55;1.83;;;;;;;20.08;100.00;101629.31;7357192;19;20022;-66
2023/10/01 09:13:08;;;;;;;8.07;2.38;;;;;;;20.10;100.00;101631.81;7352640;19;20067;-64
2023/10/01 09:15:43;;;;;;;8.55;2.13;;;;;;;20.11;100.00;101636.13;7359354;19;20045;-65
2023/10/01 09:18:11;;;;;;;9.20;2.72;;;;;;;20.13;100.00;101638.59;7356336;19;20014;-64
2023/10/01 09:20:39;;;;;;;11.30;2.50;;;;;;;20.15;100.00;101642.72;7354785;19;20026;-65
2023/10/01 09:23:06;;;;;;;8.50;3.38;;;;;;;20.15;100.00;101636.56;7354143;19;20018;-65
2023/10/01 09:25:39;;;;;;;9.93;3.20;;;;;;;20.15;100.00;101637.38;7357857;19;20043;-66
2023/10/01 09:30:55;;;;;;;7.63;2.63;;;;;;;20.18;100.00;101645.00;7355260;19;21277;-65
2023/10/01 09:33:24;;;;;;;8.70;2.70;;;;;;;20.18;100.00;101628.97;7353919;19;20520;-66
2023/10/01 09:38:29;;;;;;;9.23;3.42;;;;;;;20.19;100.00;101638.63;7355234;19;20384;-65
2023/10/01 09:40:57;;;;;;;8.45;3.30;;;;;;;20.19;100.00;101638.63;7357395;19;20567;-65
2023/10/01 09:43:29;;;;;;;7.60;2.50;;;;;;;20.20;100.00;101634.97;7353405;19;20406;-65
2023/10/01 09:46:00;;;;;;;10.95;2.42;;;;;;;20.22;100.00;101630.22;7355658;19;20037;-65
2023/10/01 09:48:36;;;;;;;7.43;2.47;;;;;;;20.24;100.00;101643.41;7354568;19;20457;-65
2023/10/01 09:51:15;;;;;;;9.23;2.92;;;;;;;20.26;100.00;101638.69;7355119;19;20022;-65
2023/10/01 09:53:47;;;;;;;17.77;11.20;;;;;;;20.27;100.00;101633.13;7354261;19;20022;-65
2023/10/01 09:56:26;;;;;;;14.10;5.13;;;;;;;20.30;100.00;101643.44;7341795;19;20620;-65
2023/10/01 09:59:07;;;;;;;8.82;3.30;;;;;;;20.32;100.00;101635.25;7338454;19;20410;-65
2023/10/01 10:01:37;;;;;;;8.60;2.78;;;;;;;20.33;100.00;101626.19;7357901;19;20006;-66
2023/10/01 10:04:07;;;;;;;9.27;3.28;;;;;;;20.34;100.00;101631.38;7354354;19;20038;-65
2023/10/01 10:06:35;;;;;;;11.05;3.17;;;;;;;20.37;100.00;101632.81;7352859;19;20094;-65
2023/10/01 10:09:07;;;;;;;9.38;2.95;;;;;;;20.41;100.00;101634.09;7353263;19;20234;-66
2023/10/01 10:11:40;;;;;;;10.95;2.95;;;;;;;20.44;100.00;101629.16;7353713;19;20018;-66
2023/10/01 10:14:24;;;;;;;9.57;2.67;;;;;;;20.45;100.00;101622.78;7351922;19;20017;-66
2023/10/01 10:17:00;;;;;;;8.85;2.78;;;;;;;20.48;100.00;101624.22;7349210;19;20014;-66
2023/10/01 10:19:31;;;;;;;9.63;3.40;;;;;;;20.51;100.00;101625.69;7352234;19;20023;-66
2023/10/01 10:24:30;;;;;;;8.88;2.85;;;;;;;20.56;100.00;101625.94;7355678;19;20463;-66
2023/10/01 10:27:03;;;;;;;8.73;2.78;;;;;;;20.60;100.00;101621.81;7352952;19;20011;-66
2023/10/01 10:32:28;;;;;;;10.48;2.72;;;;;;;20.63;100.00;101621.41;7353976;19;20321;-66
2023/10/01 10:35:03;;;;;;;9.55;2.63;;;;;;;20.63;100.00;101616.91;7352876;19;20031;-65
2023/10/01 10:40:22;;;;;;;9.63;2.83;;;;;;;20.64;100.00;101618.56;7352867;19;20718;-65
2023/10/01 10:42:58;;;;;;;9.25;2.67;;;;;;;20.66;100.00;101632.56;7353749;19;20048;-67
2023/10/01 10:45:45;;;;;;;8.48;2.38;;;;;;;20.69;100.00;101626.81;7348856;19;21441;-65
2023/10/01 10:48:16;;;;;;;8.15;2.97;;;;;;;20.72;100.00;101629.09;7351297;19;20014;-66
2023/10/01 10:50:48;;;;;;;10.38;2.78;;;;;;;20.76;100.00;101626.84;7346832;19;20547;-66
2023/10/01 10:53:19;;;;;;;;;;;;;;;20.78;100.00;101622.94;7355645;19;20014;-65
2023/10/01 10:55:55;;;;;;;9.30;2.55;;;;;;;20.81;100.00;101627.06;7353916;19;19923;-66
2023/10/01 10:58:25;;;;;;;10.85;3.05;;;;;;;20.84;100.00;101626.66;7348689;19;20033;-65
2023/10/01 11:00:53;;;;;;;12.20;3.72;;;;;;;20.85;99.97;101626.47;7355212;19;20090;-66
2023/10/01 11:06:18;;;;;;;10.60;3.28;;;;;;;20.91;100.00;101623.00;7354361;19;20014;-65
2023/10/01 11:08:51;;;;;;;12.35;3.00;;;;;;;20.92;99.98;101616.63;7354992;19;20324;-66
2023/10/01 11:11:29;;;;;;;8.88;3.05;;;;;;;20.93;100.00;101618.25;7354425;19;20024;-64
2023/10/01 11:14:00;;;;;;;9.45;3.72;;;;;;;20.96;99.58;101617.03;7350868;19;20011;-68
2023/10/01 11:16:39;;;;;;;14.30;3.20;;;;;;;20.96;99.26;101622.38;7355678;19;20392;-65
2023/10/01 11:19:12;;;;;;;12.70;2.88;;;;;;;20.96;99.51;101619.72;7356059;19;20424;-65
2023/10/01 11:21:54;;;;;;;14.00;2.75;;;;;;;20.98;99.70;101616.84;7347517;19;20093;-65
2023/10/01 11:24:25;;;;;;;10.32;3.53;;;;;;;20.96;99.59;101611.69;7352591;19;20605;-65
2023/10/01 11:27:11;;;;;;;12.60;3.42;;;;;;;20.98;99.74;101609.59;7352074;19;20686;-66
2023/10/01 11:29:39;;;;;;;13.23;3.78;;;;;;;21.00;99.33;101617.44;7351032;19;20094;-65
2023/10/01 11:32:07;;;;;;;11.82;3.22;;;;;;;21.02;99.55;101612.72;7350535;19;20022;-66
2023/10/01 11:34:45;;;;;;;15.23;3.10;;;;;;;21.05;99.82;101607.78;7347750;19;20018;-66
2023/10/01 11:37:17;;;;;;;11.00;3.67;;;;;;;21.06;99.46;101601.41;7354142;19;20044;-65
2023/10/01 11:42:27;;;;;;;10.68;3.55;;;;;;;21.12;99.05;101599.78;7350217;19;20564;-66
2023/10/01 11:44:54;;;;;;;12.52;3.22;;;;;;;21.15;99.00;101605.56;7350849;19;20006;-66
2023/10/01 11:50:08;;;;;;;14.68;3.53;;;;;;;21.24;98.05;101593.63;7352807;19;20010;-66
2023/10/01 11:52:37;;;;;;;14.32;3.47;;;;;;;21.29;97.73;101596.53;7349839;19;20842;-65
2023/10/01 11:55:18;;;;;;;11.07;3.13;;;;;;;21.36;96.92;101585.84;7354033;19;20783;-66
2023/10/01 11:57:53;;;;;;;11.93;4.82;;;;;;;21.40;96.43;101587.06;7357663;19;20019;-66
2023/10/01 12:00:52;;;;;;;9.45;2.88;;;;;;;21.42;96.12;101582.34;7359072;19;20415;-65
2023/10/01 12:03:11;;;;;;;13.05;2.72;;;;;;;21.46;95.70;101578.22;7360801;19;20043;-67
2023/10/01 12:05:42;;;;;;;12.48;3.08;;;;;;;21.54;95.31;101578.00;7358579;19;20099;-65
2023/10/01 12:08:14;;;;;;;11.77;2.95;;;;;;;21.59;95.24;101583.56;7358160;19;21045;-65
2023/10/01 12:10:42;;;;;;;10.68;2.72;;;;;;;21.64;95.02;101586.44;7362474;19;20023;-66
2023/10/01 12:13:13;;;;;;;12.63;3.25;;;;;;;21.68;94.96;101592.22;7360373;19;20014;-66
2023/10/01 12:15:51;;;;;;;10.60;3.13;;;;;;;21.72;95.11;101586.25;7362715;19;20018;-66
2023/10/01 12:18:18;;;;;;;13.05;2.95;;;;;;;21.75;94.43;101585.81;7363012;19;20150;-67
2023/10/01 12:20:47;;;;;;;9.35;2.45;;;;;;;21.78;94.26;101584.59;7359078;19;20007;-68
2023/10/01 12:23:15;;;;;;;11.93;3.50;;;;;;;21.84;93.78;101574.91;7352326;19;20018;-65
2023/10/01 12:28:24;;;;;;;11.30;2.92;;;;;;;21.88;93.08;101584.19;7352907;19;20026;-65
2023/10/01 12:30:57;;;;;;;11.63;3.40;;;;;;;21.90;93.80;101576.72;7360283;19;20014;-66
2023/10/01 12:36:31;;;;;;;10.40;2.75;;;;;;;21.93;93.17;101565.59;7355230;19;20038;-65
2023/10/01 12:39:27;;;;;;;9.77;3.00;;;;;;;21.96;92.25;101570.56;7357623;19;20019;-65
2023/10/01 12:44:25;;;;;;;10.80;2.90;;;;;;;22.02;91.90;101556.34;7354730;19;20011;-68
2023/10/01 12:46:54;;;;;;;8.48;2.92;;;;;;;22.04;91.96;101555.09;7357379;19;20348;-66
2023/10/01 12:49:22;;;;;;;12.20;2.97;;;;;;;22.08;92.12;101550.97;7355758;19;20164;-65
2023/10/01 12:51:53;;;;;;;9.38;2.47;;;;;;;22.12;91.75;101548.69;7360009;19;20090;-66
2023/10/01 12:54:25;;;;;;;10.13;2.55;;;;;;;22.14;91.88;101554.66;7353471;19;20086;-65
2023/10/01 13:07:35;;;;;;;7.97;2.55;;;;;;;22.14;91.17;101547.44;7358738;19;20055;-66
2023/10/01 13:10:07;;;;;;;12.68;3.15;;;;;;;22.13;91.58;101551.16;7359490;19;20580;-65
2023/10/01 13:15:15;;;;;;;11.68;2.63;;;;;;;22.18;91.22;101542.47;7357219;19;21005;-65
2023/10/01 13:17:43;;;;;;;8.07;2.40;;;;;;;22.26;91.21;101544.09;7356510;19;20030;-66
2023/10/01 13:22:51;;;;;;;9.68;3.10;;;;;;;22.33;90.70;101539.53;7354069;19;20018;-66
2023/10/01 13:25:20;;;;;;;8.27;2.50;;;;;;;22.34;90.05;101538.50;7354726;19;20029;-65
2023/10/01 13:27:48;;;;;;;7.50;2.60;;;;;;;22.33;89.93;101543.03;7354096;19;20007;-65
2023/10/01 13:30:18;;;;;;;8.15;3.00;;;;;;;22.34;90.27;101544.69;7357097;19;20014;-65
2023/10/01 14:14:56;;;;;;;8.30;2.65;;;;;;;22.36;89.19;101497.00;7355355;19;20475;-64
2023/10/01 14:17:25;;;;;;;9.02;2.47;;;;;;;22.35;89.38;101498.03;7354704;19;20029;-65
2023/10/01 14:19:55;;;;;;;8.82;2.55;;;;;;;22.34;89.21;101495.59;7352562;19;20017;-65